Ellerslie, Maryland
Current Conditions -  °F | °C
As of 12:54 PM on Thursday 30 Oct 2014 (Local Time) from KCBE Reporting Station
Overcast Overcast  
Wind Chill: 52°   Ceiling: 4900
Heat Index: 52°   Visibility: 10mi
Dew Point: 34°   Wind: 3mph
Humidity: 50%   Direction: 330°NNW
Pressure: 30.12"   Gusts: NA
Location:  39.72°N, 78.77°W
Report Text: KCBE 301654Z AUTO 33003KT 10SM OVC049 11/01 A3012 RMK AO1
Loading
Personal Weather Stations






























Interactive Weather Map
Tropical Storm Tracking
New forecast layout! Learn more

10-Day Weather Forecast

Advertisements
Track Severe Weather on mobile